createdAt,value
2019-03-03T00:01:01.293Z,97560.63
2019-03-03T00:03:28.398Z,97561.45
2019-03-03T00:05:55.209Z,97565.03
2019-03-03T00:08:22.151Z,97567.49
2019-03-03T00:10:48.843Z,97564.80
2019-03-03T00:13:15.772Z,97567.89
2019-03-03T00:15:42.506Z,97573.78
2019-03-03T00:18:09.435Z,97578.97
2019-03-03T00:20:36.481Z,97579.83
2019-03-03T00:23:03.116Z,97575.31
2019-03-03T00:25:30.114Z,97584.65
2019-03-03T00:27:56.747Z,97593.80
2019-03-03T00:30:23.490Z,97585.56
2019-03-03T00:32:50.374Z,97584.50
2019-03-03T00:35:17.124Z,97581.52
2019-03-03T00:37:45.314Z,97582.23
2019-03-03T00:40:11.947Z,97583.39
2019-03-03T00:42:38.617Z,97581.73
2019-03-03T00:45:05.310Z,97583.13
2019-03-03T00:47:33.064Z,97579.23
2019-03-03T00:49:59.926Z,97577.67
2019-03-03T00:52:26.962Z,97576.92
2019-03-03T00:54:53.620Z,97580.11
2019-03-03T00:57:20.295Z,97581.17
2019-03-03T00:59:47.258Z,97586.42
2019-03-03T01:02:14.002Z,97582.55
2019-03-03T01:04:41.501Z,97580.45
2019-03-03T01:07:08.243Z,97584.27
2019-03-03T01:09:34.874Z,97575.64
2019-03-03T01:12:01.570Z,97582.16
2019-03-03T01:14:28.560Z,97572.69
2019-03-03T01:16:55.158Z,97567.22
2019-03-03T01:19:21.917Z,97566.72
2019-03-03T01:21:48.847Z,97563.83
2019-03-03T01:24:15.507Z,97560.77
2019-03-03T01:26:42.453Z,97559.41
2019-03-03T01:29:09.184Z,97559.50
2019-03-03T01:31:35.863Z,97552.30
2019-03-03T01:34:02.543Z,97547.39
2019-03-03T01:36:29.483Z,97543.20
2019-03-03T01:38:56.171Z,97546.61
2019-03-03T01:41:22.926Z,97542.16
2019-03-03T01:43:49.857Z,97538.83
2019-03-03T01:46:16.842Z,97540.08
2019-03-03T01:48:43.451Z,97546.04
2019-03-03T01:51:10.101Z,97545.84
2019-03-03T01:53:36.722Z,97544.47
2019-03-03T01:56:03.495Z,97546.29
2019-03-03T01:58:30.391Z,97547.56
2019-03-03T02:00:57.102Z,97544.19
2019-03-03T02:03:24.077Z,97545.63
2019-03-03T02:05:50.940Z,97541.84
2019-03-03T02:08:17.909Z,97535.20
2019-03-03T02:10:44.716Z,97548.41
2019-03-03T02:13:11.367Z,97540.33
2019-03-03T02:15:38.132Z,97533.69
2019-03-03T02:18:04.760Z,97536.96
2019-03-03T02:20:31.565Z,97530.80
2019-03-03T02:22:58.491Z,97530.78
2019-03-03T02:25:25.094Z,97531.63
2019-03-03T02:27:52.161Z,97527.01
2019-03-03T02:30:18.930Z,97534.53
2019-03-03T02:32:46.147Z,97521.75
2019-03-03T02:35:12.899Z,97534.17
2019-03-03T02:37:39.579Z,97541.47
2019-03-03T02:40:06.187Z,97531.48
2019-03-03T02:42:32.888Z,97545.91
2019-03-03T02:44:59.644Z,97541.55
2019-03-03T02:47:26.507Z,97539.02
2019-03-03T02:49:53.779Z,97548.53
2019-03-03T02:52:20.722Z,97535.99
2019-03-03T02:54:47.624Z,97542.70
2019-03-03T02:57:15.565Z,97541.23
2019-03-03T02:59:42.171Z,97540.84
2019-03-03T03:02:08.824Z,97556.47
2019-03-03T03:04:35.517Z,97557.93
2019-03-03T03:07:02.645Z,97565.14
2019-03-03T03:09:29.466Z,97561.52
2019-03-03T03:11:56.800Z,97563.14
2019-03-03T03:14:23.524Z,97545.83
2019-03-03T03:16:50.443Z,97562.64
2019-03-03T03:19:17.078Z,97542.73
2019-03-03T03:21:45.847Z,97535.14
2019-03-03T03:24:12.595Z,97532.94
2019-03-03T03:26:39.679Z,97530.91
2019-03-03T03:29:06.596Z,97527.66
2019-03-03T03:31:33.442Z,97516.90
2019-03-03T03:34:00.044Z,97513.19
2019-03-03T03:36:27.010Z,97508.33
2019-03-03T03:38:53.816Z,97509.59
2019-03-03T03:41:20.541Z,97523.55
2019-03-03T03:43:47.315Z,97521.16
2019-03-03T03:46:13.967Z,97510.37
2019-03-03T03:48:40.863Z,97519.28
2019-03-03T03:51:07.535Z,97521.12
2019-03-03T03:53:34.181Z,97523.77
2019-03-03T03:56:01.101Z,97525.75
2019-03-03T03:58:28.125Z,97531.33
2019-03-03T04:00:55.004Z,97528.55
2019-03-03T04:03:21.648Z,97535.22
2019-03-03T04:05:48.339Z,97533.88
2019-03-03T04:08:15.262Z,97534.87
2019-03-03T04:10:42.180Z,97536.70
2019-03-03T04:13:08.847Z,97535.52
2019-03-03T04:15:35.493Z,97529.47
2019-03-03T04:18:04.777Z,97534.87
2019-03-03T04:20:31.475Z,97533.88
2019-03-03T04:23:00.122Z,97526.38
2019-03-03T04:25:27.987Z,97523.81
2019-03-03T04:27:55.643Z,97526.11
2019-03-03T04:30:27.970Z,97525.60
2019-03-03T04:32:56.889Z,97527.59
2019-03-03T04:35:24.023Z,97520.22
2019-03-03T04:37:50.995Z,97522.52
2019-03-03T04:40:19.386Z,97527.11
2019-03-03T04:42:45.965Z,97526.80
2019-03-03T04:45:13.092Z,97535.80
2019-03-03T04:47:39.918Z,97537.25
2019-03-03T04:50:06.884Z,97532.02
2019-03-03T04:52:36.658Z,97531.69
2019-03-03T04:55:05.211Z,97529.38
2019-03-03T04:57:34.441Z,97525.43
2019-03-03T05:00:03.341Z,97518.59
2019-03-03T05:02:32.501Z,97520.86
2019-03-03T05:04:59.203Z,97528.09
2019-03-03T05:07:25.860Z,97531.67
2019-03-03T05:09:52.569Z,97538.07
2019-03-03T05:12:19.242Z,97537.93
2019-03-03T05:14:45.816Z,97536.59
2019-03-03T05:17:12.488Z,97533.33
2019-03-03T05:19:39.311Z,97535.60
2019-03-03T05:22:06.886Z,97540.38
2019-03-03T05:24:34.563Z,97542.50
2019-03-03T05:27:02.013Z,97545.92
2019-03-03T05:29:28.924Z,97534.96
2019-03-03T05:31:55.583Z,97534.66
2019-03-03T05:34:22.655Z,97539.23
2019-03-03T05:36:49.612Z,97537.44
2019-03-03T05:39:16.243Z,97540.84
2019-03-03T05:41:42.860Z,97540.38
2019-03-03T05:44:09.846Z,97534.66
2019-03-03T05:46:37.100Z,97531.87
2019-03-03T05:49:03.885Z,97543.13
2019-03-03T05:51:31.412Z,97544.80
2019-03-03T05:53:58.295Z,97551.66
2019-03-03T05:56:25.357Z,97552.95
2019-03-03T05:58:52.174Z,97548.72
2019-03-03T06:01:19.526Z,97555.56
2019-03-03T06:03:46.171Z,97550.66
2019-03-03T06:06:13.134Z,97552.95
2019-03-03T06:08:39.893Z,97547.89
2019-03-03T06:11:06.864Z,97550.64
2019-03-03T06:13:33.663Z,97554.08
2019-03-03T06:16:01.114Z,97549.36
2019-03-03T06:18:43.350Z,97550.52
2019-03-03T06:21:10.152Z,97554.11
2019-03-03T06:23:36.858Z,97551.98
2019-03-03T06:26:03.476Z,97551.16
2019-03-03T06:28:30.325Z,97559.80
2019-03-03T06:30:57.004Z,97564.89
2019-03-03T06:33:25.224Z,97558.31
2019-03-03T06:35:52.842Z,97556.99
2019-03-03T06:38:19.711Z,97562.84
2019-03-03T06:40:46.334Z,97553.21
2019-03-03T06:43:13.270Z,97557.84
2019-03-03T06:45:40.226Z,97557.53
2019-03-03T06:48:07.556Z,97552.61
2019-03-03T06:50:35.166Z,97552.93
2019-03-03T06:53:02.016Z,97550.26
2019-03-03T06:55:28.795Z,97552.30
2019-03-03T06:57:55.584Z,97561.23
2019-03-03T07:00:22.292Z,97558.70
2019-03-03T07:02:48.928Z,97558.28
2019-03-03T07:05:15.571Z,97551.61
2019-03-03T07:10:29.122Z,97547.75
2019-03-03T07:12:56.869Z,97549.30
2019-03-03T07:15:23.541Z,97550.08
2019-03-03T07:17:50.203Z,97543.52
2019-03-03T07:20:21.135Z,97545.11
2019-03-03T07:22:51.563Z,97549.22
2019-03-03T07:25:18.419Z,97551.33
2019-03-03T07:27:45.109Z,97551.70
2019-03-03T07:30:11.743Z,97552.84
2019-03-03T07:32:41.448Z,97551.20
2019-03-03T07:35:11.102Z,97547.37
2019-03-03T07:37:37.995Z,97533.63
2019-03-03T07:40:07.144Z,97538.75
2019-03-03T07:42:34.043Z,97535.88
2019-03-03T07:45:04.522Z,97546.79
2019-03-03T07:47:29.499Z,97546.30
2019-03-03T07:49:59.705Z,97546.48
2019-03-03T07:52:28.934Z,97535.19
2019-03-03T07:54:55.539Z,97527.85
2019-03-03T07:57:23.138Z,97528.36
2019-03-03T07:59:52.259Z,97530.45
2019-03-03T08:02:18.908Z,97532.58
2019-03-03T08:04:45.796Z,97523.78
2019-03-03T08:07:12.573Z,97528.77
2019-03-03T08:09:39.526Z,97525.64
2019-03-03T08:12:06.176Z,97528.08
2019-03-03T08:14:33.905Z,97524.19
2019-03-03T08:17:00.650Z,97525.47
2019-03-03T08:19:27.309Z,97529.03
2019-03-03T08:29:54.855Z,97514.20
2019-03-03T08:32:21.541Z,97512.89
2019-03-03T08:34:48.256Z,97513.00
2019-03-03T08:37:14.992Z,97520.14
2019-03-03T08:39:42.375Z,97515.14
2019-03-03T08:42:09.199Z,97516.13
2019-03-03T08:44:36.448Z,97521.92
2019-03-03T08:47:04.623Z,97520.92
2019-03-03T08:49:31.357Z,97522.03
2019-03-03T08:51:58.231Z,97526.70
2019-03-03T08:54:25.138Z,97526.16
2019-03-03T08:56:52.193Z,97522.16
2019-03-03T08:59:19.368Z,97520.48
2019-03-03T09:01:46.274Z,97518.36
2019-03-03T09:04:13.030Z,97513.45
2019-03-03T09:06:46.812Z,97513.59
2019-03-03T09:09:13.842Z,97518.42
2019-03-03T09:14:12.889Z,97518.28
2019-03-03T09:16:41.543Z,97525.80
2019-03-03T09:19:12.292Z,97523.86
2019-03-03T09:21:42.667Z,97522.23
2019-03-03T09:24:09.272Z,97524.27
2019-03-03T09:26:48.190Z,97519.58
2019-03-03T09:29:14.549Z,97516.87
2019-03-03T09:34:28.906Z,97510.48
2019-03-03T09:36:59.610Z,97514.80
2019-03-03T09:39:29.719Z,97518.34
2019-03-03T09:41:58.515Z,97518.92
2019-03-03T09:44:27.208Z,97505.15
2019-03-03T09:46:54.531Z,97501.11
2019-03-03T09:49:27.332Z,97508.11
2019-03-03T09:51:58.542Z,97504.11
2019-03-03T09:54:26.547Z,97503.59
2019-03-03T09:56:55.944Z,97499.77
2019-03-03T09:59:23.175Z,97493.64
2019-03-03T10:01:50.114Z,97499.41
2019-03-03T10:04:16.985Z,97494.95
2019-03-03T10:06:43.903Z,97487.58
2019-03-03T10:09:10.555Z,97482.86
2019-03-03T10:11:37.767Z,97483.28
2019-03-03T10:14:04.414Z,97485.01
2019-03-03T10:16:31.072Z,97477.17
2019-03-03T10:21:30.304Z,97482.02
2019-03-03T10:23:57.432Z,97478.28
2019-03-03T10:26:24.430Z,97481.94
2019-03-03T10:28:51.523Z,97469.27
2019-03-03T10:31:18.332Z,97471.35
2019-03-03T10:33:45.613Z,97473.84
2019-03-03T10:36:12.484Z,97465.36
2019-03-03T10:38:39.150Z,97468.77
2019-03-03T10:41:05.723Z,97462.11
2019-03-03T10:43:32.505Z,97471.64
2019-03-03T10:45:59.713Z,97472.09
2019-03-03T10:48:26.612Z,97461.00
2019-03-03T10:50:54.109Z,97462.48
2019-03-03T10:53:20.790Z,97456.42
2019-03-03T10:55:48.094Z,97452.24
2019-03-03T10:58:14.800Z,97448.51
2019-03-03T11:00:42.160Z,97435.25
2019-03-03T11:03:08.913Z,97433.44
2019-03-03T11:05:36.755Z,97425.30
2019-03-03T11:10:57.336Z,97418.58
2019-03-03T11:13:18.818Z,97415.47
2019-03-03T11:15:47.873Z,97418.64
2019-03-03T11:21:17.785Z,97405.67
2019-03-03T11:23:52.953Z,97401.94
2019-03-03T11:26:21.759Z,97396.40
2019-03-03T11:28:48.407Z,97396.97
2019-03-03T11:31:19.550Z,97393.39
2019-03-03T11:33:52.580Z,97387.41
2019-03-03T11:36:19.361Z,97386.39
2019-03-03T11:41:34.998Z,97376.90
2019-03-03T11:44:05.691Z,97366.73
2019-03-03T11:46:32.817Z,97365.36
2019-03-03T11:49:01.817Z,97363.53
2019-03-03T11:51:28.521Z,97348.86
2019-03-03T11:53:56.164Z,97349.05
2019-03-03T11:56:41.640Z,97343.06
2019-03-03T11:59:10.543Z,97340.72
2019-03-03T12:01:37.719Z,97326.43
2019-03-03T12:04:04.381Z,97332.73
2019-03-03T12:06:31.671Z,97332.31
2019-03-03T12:08:58.700Z,97331.06
2019-03-03T12:11:25.552Z,97324.69
2019-03-03T12:16:36.452Z,97323.83
2019-03-03T12:19:03.370Z,97323.36
2019-03-03T12:21:30.620Z,97320.16
2019-03-03T12:23:57.500Z,97320.66
2019-03-03T12:26:24.293Z,97311.55
2019-03-03T12:28:51.365Z,97302.70
2019-03-03T12:31:18.589Z,97292.87
2019-03-03T12:33:45.351Z,97290.15
2019-03-03T12:36:12.691Z,97290.44
2019-03-03T12:38:39.626Z,97272.50
2019-03-03T12:41:06.743Z,97271.68
2019-03-03T12:43:33.688Z,97270.64
2019-03-03T12:46:00.848Z,97267.41
2019-03-03T12:48:28.677Z,97267.13
2019-03-03T12:50:55.558Z,97256.67
2019-03-03T12:53:22.176Z,97250.78
2019-03-03T12:55:48.982Z,97251.85
2019-03-03T12:58:15.957Z,97244.34
2019-03-03T13:00:42.693Z,97246.49
2019-03-03T13:03:09.384Z,97242.19
2019-03-03T13:05:38.343Z,97250.19
2019-03-03T13:08:07.484Z,97243.78
2019-03-03T13:10:34.610Z,97237.11
2019-03-03T13:13:05.310Z,97242.48
2019-03-03T13:15:33.000Z,97231.71
2019-03-03T13:18:01.604Z,97238.45
2019-03-03T13:20:33.051Z,97228.00
2019-03-03T13:23:01.397Z,97233.34
2019-03-03T13:25:28.604Z,97228.81
2019-03-03T13:27:58.323Z,97225.59
2019-03-03T13:30:28.431Z,97219.33
2019-03-03T13:32:56.146Z,97215.22
2019-03-03T13:35:24.758Z,97214.19
2019-03-03T13:37:55.130Z,97212.38
2019-03-03T13:45:38.981Z,97201.08
2019-03-03T13:48:08.967Z,97199.11
2019-03-03T13:50:38.065Z,97197.63
2019-03-03T13:53:06.859Z,97199.70
2019-03-03T13:55:33.900Z,97198.81
2019-03-03T13:58:01.179Z,97195.27
2019-03-03T14:00:32.314Z,97186.70
2019-03-03T14:02:58.880Z,97191.61
2019-03-03T14:05:28.442Z,97183.57
2019-03-03T14:07:56.332Z,97179.70
2019-03-03T14:10:25.435Z,97172.03
2019-03-03T14:12:54.682Z,97175.27
2019-03-03T14:15:22.148Z,97168.42
2019-03-03T14:17:50.353Z,97169.03
2019-03-03T14:20:18.866Z,97167.34
2019-03-03T14:22:46.128Z,97162.11
2019-03-03T14:25:15.168Z,97157.48
2019-03-03T14:27:41.863Z,97154.81
2019-03-03T14:32:43.020Z,97154.58
2019-03-03T14:35:13.285Z,97157.99
2019-03-03T14:37:41.472Z,97156.64
2019-03-03T14:40:08.507Z,97152.14
2019-03-03T14:42:35.406Z,97152.03
2019-03-03T14:45:06.167Z,97154.38
2019-03-03T14:47:35.110Z,97153.82
2019-03-03T14:50:04.183Z,97153.88
2019-03-03T14:52:32.482Z,97155.80
2019-03-03T14:54:59.436Z,97150.73
2019-03-03T14:57:29.046Z,97147.55
2019-03-03T14:59:55.722Z,97146.25
2019-03-03T15:02:23.059Z,97145.48
2019-03-03T15:04:51.593Z,97145.73
2019-03-03T15:07:18.678Z,97141.43
2019-03-03T15:09:45.567Z,97138.75
2019-03-03T15:12:12.628Z,97136.09
2019-03-03T15:14:39.617Z,97127.80
2019-03-03T15:17:06.288Z,97129.42
2019-03-03T15:19:33.044Z,97129.14
2019-03-03T15:22:00.077Z,97120.56
2019-03-03T15:24:26.707Z,97120.02
2019-03-03T15:26:53.486Z,97110.92
2019-03-03T15:29:20.709Z,97109.05
2019-03-03T15:31:47.632Z,97106.91
2019-03-03T15:34:15.678Z,97101.83
2019-03-03T15:36:42.756Z,97104.73
2019-03-03T15:39:09.571Z,97099.38
2019-03-03T15:41:36.725Z,97104.14
2019-03-03T15:44:03.853Z,97104.15
2019-03-03T15:46:30.693Z,97108.96
2019-03-03T15:48:57.356Z,97111.11
2019-03-03T15:51:24.093Z,97111.63
2019-03-03T15:53:50.886Z,97108.41
2019-03-03T15:56:17.670Z,97112.13
2019-03-03T15:58:44.956Z,97108.33
2019-03-03T16:01:11.907Z,97105.38
2019-03-03T16:03:39.000Z,97102.42
2019-03-03T16:06:05.936Z,97094.93
2019-03-03T16:08:33.222Z,97098.12
2019-03-03T16:10:59.940Z,97101.52
2019-03-03T16:13:26.851Z,97102.03
2019-03-03T16:15:53.688Z,97101.19
2019-03-03T16:18:20.616Z,97099.44
2019-03-03T16:20:50.473Z,97101.44
2019-03-03T16:23:17.797Z,97095.44
2019-03-03T16:25:44.554Z,97099.41
2019-03-03T16:28:11.303Z,97098.33
2019-03-03T16:30:37.959Z,97092.28
2019-03-03T16:33:04.954Z,97091.07
2019-03-03T16:35:31.849Z,97089.77
2019-03-03T16:37:58.694Z,97084.52
2019-03-03T16:40:25.914Z,97076.88
2019-03-03T16:42:52.855Z,97074.72
2019-03-03T16:45:20.141Z,97079.00
2019-03-03T16:47:47.025Z,97080.74
2019-03-03T16:50:14.061Z,97078.23
2019-03-03T16:52:41.100Z,97079.64
2019-03-03T16:55:08.280Z,97082.13
2019-03-03T16:57:34.919Z,97078.02
2019-03-03T17:00:01.518Z,97086.48
2019-03-03T17:02:28.124Z,97086.55
2019-03-03T17:04:55.443Z,97081.89
2019-03-03T17:07:22.298Z,97081.95
2019-03-03T17:09:49.224Z,97093.18
2019-03-03T17:12:16.374Z,97084.85
2019-03-03T17:14:43.272Z,97090.53
2019-03-03T17:17:10.452Z,97088.40
2019-03-03T17:19:40.749Z,97094.45
2019-03-03T17:22:07.729Z,97082.70
2019-03-03T17:24:35.668Z,97090.27
2019-03-03T17:27:02.310Z,97088.59
2019-03-03T17:29:30.458Z,97090.78
2019-03-03T17:31:57.204Z,97090.09
2019-03-03T17:34:23.874Z,97078.14
2019-03-03T17:36:50.577Z,97080.33
2019-03-03T17:39:17.222Z,97081.80
2019-03-03T17:41:43.979Z,97082.56
2019-03-03T17:44:10.513Z,97079.95
2019-03-03T17:46:38.070Z,97082.26
2019-03-03T17:49:04.653Z,97082.53
2019-03-03T17:51:31.291Z,97084.28
2019-03-03T17:53:57.897Z,97080.62
2019-03-03T17:56:24.532Z,97081.20
2019-03-03T17:58:51.165Z,97081.93
2019-03-03T18:01:18.076Z,97070.78
2019-03-03T18:03:44.903Z,97067.81
2019-03-03T18:06:11.484Z,97074.06
